RKNN/KAG METAR and TAF weather

Enter ICAO airport designator
Station Type Date Time Source
RKNN METAR 2018/08/06 02:08 UTC NOAA

RKNN 060208Z 12008KT 2400 -RA BR SCT005 BKN010 FEW015CB OVC020 26/26 A2974 RMK CIG010 CB SE WR//


Station Type Date Time Source
RKNN Decoded METAR 2018/08/06 02:08 UTC NOAA

Kangnung Ab, Korea, South (RKNN) 37-45N 128-57E 6M
Aug 05, 2018 - 10:08 PM EDT / 2018.08.06 0208 UTC
Wind: from the ESE (120 degrees) at 9 MPH (8 KT):0
Visibility: 1 mile(s):0
Sky conditions: overcast
Weather: light rain; mist; Cumulonimbus clouds observed
Temperature: 78 F (26 C)
Dew Point: 78 F (26 C)
Relative Humidity: 100%
Pressure (altimeter): 29.74 in. Hg (1007 hPa)
ob: RKNN 060208Z 12008KT 2400 -RA BR SCT005 BKN010 FEW015CB OVC020 26/26 A2974 RMK CIG010 CB SE WR//
cycle: 2

Station Type Date Time Source
RKNN TAF 2013/10/14 20:56 UTC NOAA

TAF
AMD RKNN 142045Z 1420/1524 06006G16KT 4800 -RA BR SCT010 BKN020
BECMG 1423/1424 06006G16KT 3200 -RA BR BKN010 OVC020
BECMG 1511/1512 36010KT 4800 -RA BR BKN025 TX16/1421Z TN07/1520Z


Example: see airport list